sensor_id;sensor_type;location;lat;lon;timestamp;temperature;humidity
5358;DHT22;2702;51.014;7.170;2023-02-12T00:00:48;8.10;99.90
5358;DHT22;2702;51.014;7.170;2023-02-12T00:03:14;8.00;99.90
5358;DHT22;2702;51.014;7.170;2023-02-12T00:05:40;8.10;99.90
5358;DHT22;2702;51.014;7.170;2023-02-12T00:08:07;8.00;99.90
5358;DHT22;2702;51.014;7.170;2023-02-12T00:10:33;7.90;99.90
5358;DHT22;2702;51.014;7.170;2023-02-12T00:12:59;7.80;99.90
5358;DHT22;2702;51.014;7.170;2023-02-12T00:15:25;7.90;99.90
5358;DHT22;2702;51.014;7.170;2023-02-12T00:17:51;7.90;99.90
5358;DHT22;2702;51.014;7.170;2023-02-12T00:20:17;8.00;99.90
5358;DHT22;2702;51.014;7.170;2023-02-12T00:22:43;8.00;99.90
5358;DHT22;2702;51.014;7.170;2023-02-12T00:25:09;7.90;99.90
5358;DHT22;2702;51.014;7.170;2023-02-12T00:27:35;7.70;99.90
5358;DHT22;2702;51.014;7.170;2023-02-12T00:30:01;7.80;99.90
5358;DHT22;2702;51.014;7.170;2023-02-12T00:32:27;7.90;99.90
5358;DHT22;2702;51.014;7.170;2023-02-12T00:34:52;7.90;99.90
5358;DHT22;2702;51.014;7.170;2023-02-12T00:37:18;8.00;99.90
5358;DHT22;2702;51.014;7.170;2023-02-12T00:39:44;8.00;99.90
5358;DHT22;2702;51.014;7.170;2023-02-12T00:42:10;8.00;99.90
5358;DHT22;2702;51.014;7.170;2023-02-12T00:44:36;8.00;99.90
5358;DHT22;2702;51.014;7.170;2023-02-12T00:47:03;7.80;99.90
5358;DHT22;2702;51.014;7.170;2023-02-12T00:49:32;7.70;99.90
5358;DHT22;2702;51.014;7.170;2023-02-12T00:52:03;7.60;99.90
5358;DHT22;2702;51.014;7.170;2023-02-12T00:54:29;7.70;99.90
5358;DHT22;2702;51.014;7.170;2023-02-12T00:56:56;7.70;99.90
5358;DHT22;2702;51.014;7.170;2023-02-12T00:59:22;7.80;99.90
5358;DHT22;2702;51.014;7.170;2023-02-12T01:01:49;7.70;99.90
5358;DHT22;2702;51.014;7.170;2023-02-12T01:04:15;7.60;99.90
5358;DHT22;2702;51.014;7.170;2023-02-12T01:06:40;7.60;99.90
5358;DHT22;2702;51.014;7.170;2023-02-12T01:09:06;7.70;99.90
5358;DHT22;2702;51.014;7.170;2023-02-12T01:11:32;7.70;99.90
5358;DHT22;2702;51.014;7.170;2023-02-12T01:13:58;7.70;99.90
5358;DHT22;2702;51.014;7.170;2023-02-12T01:16:25;7.80;99.90
5358;DHT22;2702;51.014;7.170;2023-02-12T01:18:52;7.80;99.90
5358;DHT22;2702;51.014;7.170;2023-02-12T01:21:22;7.90;99.90
5358;DHT22;2702;51.014;7.170;2023-02-12T01:23:48;7.90;99.90
5358;DHT22;2702;51.014;7.170;2023-02-12T01:26:16;7.90;99.90
5358;DHT22;2702;51.014;7.170;2023-02-12T01:28:43;7.90;99.90
5358;DHT22;2702;51.014;7.170;2023-02-12T01:31:14;7.90;99.90
5358;DHT22;2702;51.014;7.170;2023-02-12T01:33:41;8.00;99.90
5358;DHT22;2702;51.014;7.170;2023-02-12T01:36:08;8.00;99.90
5358;DHT22;2702;51.014;7.170;2023-02-12T01:38:35;8.10;99.90
5358;DHT22;2702;51.014;7.170;2023-02-12T01:41:14;8.10;99.90
5358;DHT22;2702;51.014;7.170;2023-02-12T01:43:40;8.10;99.90
5358;DHT22;2702;51.014;7.170;2023-02-12T01:46:08;8.10;99.90
5358;DHT22;2702;51.014;7.170;2023-02-12T01:48:38;8.10;99.90
5358;DHT22;2702;51.014;7.170;2023-02-12T01:51:06;8.20;99.90
5358;DHT22;2702;51.014;7.170;2023-02-12T01:53:48;8.10;99.90
5358;DHT22;2702;51.014;7.170;2023-02-12T01:56:15;8.10;99.90
5358;DHT22;2702;51.014;7.170;2023-02-12T01:58:43;8.10;99.90
5358;DHT22;2702;51.014;7.170;2023-02-12T02:01:15;8.10;99.90
5358;DHT22;2702;51.014;7.170;2023-02-12T02:03:46;8.10;99.90
5358;DHT22;2702;51.014;7.170;2023-02-12T02:06:21;8.10;99.90
5358;DHT22;2702;51.014;7.170;2023-02-12T02:08:52;8.10;99.90
5358;DHT22;2702;51.014;7.170;2023-02-12T02:11:18;8.10;99.90
5358;DHT22;2702;51.014;7.170;2023-02-12T02:14:02;8.10;99.90
5358;DHT22;2702;51.014;7.170;2023-02-12T02:17:35;8.10;99.90
5358;DHT22;2702;51.014;7.170;2023-02-12T02:25:52;8.10;99.90
5358;DHT22;2702;51.014;7.170;2023-02-12T02:40:01;8.10;99.90
5358;DHT22;2702;51.014;7.170;2023-02-12T02:42:41;8.10;99.90
5358;DHT22;2702;51.014;7.170;2023-02-12T02:48:11;8.10;99.90
5358;DHT22;2702;51.014;7.170;2023-02-12T02:50:42;8.10;99.90
5358;DHT22;2702;51.014;7.170;2023-02-12T02:53:24;8.10;99.90
5358;DHT22;2702;51.014;7.170;2023-02-12T02:55:55;8.10;99.90
5358;DHT22;2702;51.014;7.170;2023-02-12T02:58:50;8.00;99.90
5358;DHT22;2702;51.014;7.170;2023-02-12T03:01:25;8.00;99.90
5358;DHT22;2702;51.014;7.170;2023-02-12T03:09:37;8.00;99.90
5358;DHT22;2702;51.014;7.170;2023-02-12T03:12:43;7.90;99.90
5358;DHT22;2702;51.014;7.170;2023-02-12T03:17:50;7.90;99.90
5358;DHT22;2702;51.014;7.170;2023-02-12T03:20:22;7.80;99.90
5358;DHT22;2702;51.014;7.170;2023-02-12T03:23:00;7.70;99.90
5358;DHT22;2702;51.014;7.170;2023-02-12T03:25:34;7.70;99.90
5358;DHT22;2702;51.014;7.170;2023-02-12T03:28:32;7.70;99.90
5358;DHT22;2702;51.014;7.170;2023-02-12T03:36:54;7.70;99.90
5358;DHT22;2702;51.014;7.170;2023-02-12T03:39:42;7.70;99.90
5358;DHT22;2702;51.014;7.170;2023-02-12T03:48:04;7.70;99.90
5358;DHT22;2702;51.014;7.170;2023-02-12T03:50:51;7.60;99.90
5358;DHT22;2702;51.014;7.170;2023-02-12T03:53:18;7.60;99.90
5358;DHT22;2702;51.014;7.170;2023-02-12T03:55:46;7.50;99.90
5358;DHT22;2702;51.014;7.170;2023-02-12T03:58:18;7.50;99.90
5358;DHT22;2702;51.014;7.170;2023-02-12T04:00:45;7.50;99.90
5358;DHT22;2702;51.014;7.170;2023-02-12T04:03:11;7.60;99.90
5358;DHT22;2702;51.014;7.170;2023-02-12T04:05:37;7.60;99.90
5358;DHT22;2702;51.014;7.170;2023-02-12T04:08:08;7.50;99.90
5358;DHT22;2702;51.014;7.170;2023-02-12T04:13:43;7.50;99.90
5358;DHT22;2702;51.014;7.170;2023-02-12T04:16:19;7.40;99.90
5358;DHT22;2702;51.014;7.170;2023-02-12T04:18:48;7.40;99.90
5358;DHT22;2702;51.014;7.170;2023-02-12T04:21:39;7.40;99.90
5358;DHT22;2702;51.014;7.170;2023-02-12T04:24:17;7.40;99.90
5358;DHT22;2702;51.014;7.170;2023-02-12T04:26:53;7.30;99.90
5358;DHT22;2702;51.014;7.170;2023-02-12T04:37:21;7.50;99.90
5358;DHT22;2702;51.014;7.170;2023-02-12T04:39:48;7.60;99.90
5358;DHT22;2702;51.014;7.170;2023-02-12T04:42:15;7.60;99.90
5358;DHT22;2702;51.014;7.170;2023-02-12T04:44:42;7.60;99.90
5358;DHT22;2702;51.014;7.170;2023-02-12T04:47:13;7.60;99.90
5358;DHT22;2702;51.014;7.170;2023-02-12T04:49:40;7.60;99.90
5358;DHT22;2702;51.014;7.170;2023-02-12T04:52:06;7.60;99.90
5358;DHT22;2702;51.014;7.170;2023-02-12T04:54:32;7.70;99.90
5358;DHT22;2702;51.014;7.170;2023-02-12T04:56:58;7.70;99.90
5358;DHT22;2702;51.014;7.170;2023-02-12T04:59:23;7.70;99.90
5358;DHT22;2702;51.014;7.170;2023-02-12T05:01:49;7.70;99.90
5358;DHT22;2702;51.014;7.170;2023-02-12T05:04:16;7.70;99.90
5358;DHT22;2702;51.014;7.170;2023-02-12T05:06:44;7.70;99.90
5358;DHT22;2702;51.014;7.170;2023-02-12T05:09:15;7.70;99.90
5358;DHT22;2702;51.014;7.170;2023-02-12T05:11:41;7.70;99.90
5358;DHT22;2702;51.014;7.170;2023-02-12T05:14:07;7.70;99.90
5358;DHT22;2702;51.014;7.170;2023-02-12T05:16:33;7.70;99.90
5358;DHT22;2702;51.014;7.170;2023-02-12T05:18:58;7.70;99.90
5358;DHT22;2702;51.014;7.170;2023-02-12T05:21:24;7.70;99.90
5358;DHT22;2702;51.014;7.170;2023-02-12T05:23:50;7.70;99.90
5358;DHT22;2702;51.014;7.170;2023-02-12T05:26:18;7.60;99.90
5358;DHT22;2702;51.014;7.170;2023-02-12T05:28:45;7.50;99.90
5358;DHT22;2702;51.014;7.170;2023-02-12T05:31:14;7.40;99.90
5358;DHT22;2702;51.014;7.170;2023-02-12T05:33:45;7.40;99.90
5358;DHT22;2702;51.014;7.170;2023-02-12T05:36:17;7.20;99.90
5358;DHT22;2702;51.014;7.170;2023-02-12T05:38:43;7.00;99.90
5358;DHT22;2702;51.014;7.170;2023-02-12T05:41:11;7.00;99.90
5358;DHT22;2702;51.014;7.170;2023-02-12T05:43:37;7.10;99.90
5358;DHT22;2702;51.014;7.170;2023-02-12T05:46:05;7.10;99.90
5358;DHT22;2702;51.014;7.170;2023-02-12T05:48:32;7.00;99.90
5358;DHT22;2702;51.014;7.170;2023-02-12T05:51:19;6.90;99.90
5358;DHT22;2702;51.014;7.170;2023-02-12T05:53:47;7.00;99.90
5358;DHT22;2702;51.014;7.170;2023-02-12T05:56:23;7.00;99.90
5358;DHT22;2702;51.014;7.170;2023-02-12T05:58:56;7.00;99.90
5358;DHT22;2702;51.014;7.170;2023-02-12T06:01:33;6.90;99.90
5358;DHT22;2702;51.014;7.170;2023-02-12T06:04:01;6.90;99.90
5358;DHT22;2702;51.014;7.170;2023-02-12T06:06:28;6.90;99.90
5358;DHT22;2702;51.014;7.170;2023-02-12T06:08:55;6.80;99.90
5358;DHT22;2702;51.014;7.170;2023-02-12T06:11:21;7.00;99.90
5358;DHT22;2702;51.014;7.170;2023-02-12T06:13:47;7.00;99.90
5358;DHT22;2702;51.014;7.170;2023-02-12T06:16:19;6.90;99.90
5358;DHT22;2702;51.014;7.170;2023-02-12T06:18:45;7.00;99.90
5358;DHT22;2702;51.014;7.170;2023-02-12T06:21:11;6.90;99.90
5358;DHT22;2702;51.014;7.170;2023-02-12T06:23:36;7.00;99.90
5358;DHT22;2702;51.014;7.170;2023-02-12T06:26:02;7.10;99.90
5358;DHT22;2702;51.014;7.170;2023-02-12T06:28:28;7.20;99.90
5358;DHT22;2702;51.014;7.170;2023-02-12T06:30:54;7.20;99.90
5358;DHT22;2702;51.014;7.170;2023-02-12T06:33:20;7.20;99.90
5358;DHT22;2702;51.014;7.170;2023-02-12T06:35:46;7.30;99.90
5358;DHT22;2702;51.014;7.170;2023-02-12T06:38:11;7.30;99.90
5358;DHT22;2702;51.014;7.170;2023-02-12T06:40:37;7.30;99.90
5358;DHT22;2702;51.014;7.170;2023-02-12T06:43:03;7.30;99.90
5358;DHT22;2702;51.014;7.170;2023-02-12T06:45:29;7.30;99.90
5358;DHT22;2702;51.014;7.170;2023-02-12T06:47:55;7.30;99.90
5358;DHT22;2702;51.014;7.170;2023-02-12T06:50:21;7.30;99.90
5358;DHT22;2702;51.014;7.170;2023-02-12T06:52:47;7.40;99.90
5358;DHT22;2702;51.014;7.170;2023-02-12T06:55:13;7.40;99.90
5358;DHT22;2702;51.014;7.170;2023-02-12T06:57:38;7.30;99.90
5358;DHT22;2702;51.014;7.170;2023-02-12T07:00:05;7.40;99.90
5358;DHT22;2702;51.014;7.170;2023-02-12T07:02:31;7.40;99.90
5358;DHT22;2702;51.014;7.170;2023-02-12T07:04:56;7.40;99.90
5358;DHT22;2702;51.014;7.170;2023-02-12T07:07:22;7.30;99.90
5358;DHT22;2702;51.014;7.170;2023-02-12T07:09:48;7.40;99.90
5358;DHT22;2702;51.014;7.170;2023-02-12T07:12:14;7.40;99.90
5358;DHT22;2702;51.014;7.170;2023-02-12T07:14:40;7.50;99.90
5358;DHT22;2702;51.014;7.170;2023-02-12T07:17:06;7.50;99.90
5358;DHT22;2702;51.014;7.170;2023-02-12T07:19:33;7.50;99.90
5358;DHT22;2702;51.014;7.170;2023-02-12T07:21:59;7.50;99.90
5358;DHT22;2702;51.014;7.170;2023-02-12T07:24:25;7.50;99.90
5358;DHT22;2702;51.014;7.170;2023-02-12T07:26:50;7.50;99.90
5358;DHT22;2702;51.014;7.170;2023-02-12T07:29:16;7.50;99.90
5358;DHT22;2702;51.014;7.170;2023-02-12T07:31:42;7.50;99.90
5358;DHT22;2702;51.014;7.170;2023-02-12T07:34:09;7.60;99.90
5358;DHT22;2702;51.014;7.170;2023-02-12T07:36:35;7.50;99.90
5358;DHT22;2702;51.014;7.170;2023-02-12T07:39:02;7.50;99.90
5358;DHT22;2702;51.014;7.170;2023-02-12T07:41:31;7.50;99.90
5358;DHT22;2702;51.014;7.170;2023-02-12T07:44:03;7.50;99.90
5358;DHT22;2702;51.014;7.170;2023-02-12T07:46:36;7.50;99.90
5358;DHT22;2702;51.014;7.170;2023-02-12T07:49:05;7.50;99.90
5358;DHT22;2702;51.014;7.170;2023-02-12T07:51:33;7.40;99.90
5358;DHT22;2702;51.014;7.170;2023-02-12T07:54:00;7.50;99.90
5358;DHT22;2702;51.014;7.170;2023-02-12T07:56:28;7.50;99.90
5358;DHT22;2702;51.014;7.170;2023-02-12T07:59:01;7.50;99.90
5358;DHT22;2702;51.014;7.170;2023-02-12T08:01:33;7.50;99.90
5358;DHT22;2702;51.014;7.170;2023-02-12T08:04:02;7.50;99.90
5358;DHT22;2702;51.014;7.170;2023-02-12T08:06:30;7.50;99.90
5358;DHT22;2702;51.014;7.170;2023-02-12T08:08:59;7.50;99.90
5358;DHT22;2702;51.014;7.170;2023-02-12T08:11:26;7.50;99.90
5358;DHT22;2702;51.014;7.170;2023-02-12T08:13:52;7.50;99.90
5358;DHT22;2702;51.014;7.170;2023-02-12T08:16:23;7.50;99.90
5358;DHT22;2702;51.014;7.170;2023-02-12T08:18:50;7.60;99.90
5358;DHT22;2702;51.014;7.170;2023-02-12T08:21:26;7.60;99.90
5358;DHT22;2702;51.014;7.170;2023-02-12T08:23:54;7.60;99.90
5358;DHT22;2702;51.014;7.170;2023-02-12T08:28:59;7.60;99.90
5358;DHT22;2702;51.014;7.170;2023-02-12T08:31:29;7.70;99.90
5358;DHT22;2702;51.014;7.170;2023-02-12T08:33:56;7.70;99.90
5358;DHT22;2702;51.014;7.170;2023-02-12T08:36:25;7.80;99.90
5358;DHT22;2702;51.014;7.170;2023-02-12T08:38:51;7.80;99.90
5358;DHT22;2702;51.014;7.170;2023-02-12T08:41:20;7.90;99.90
5358;DHT22;2702;51.014;7.170;2023-02-12T08:43:46;7.90;99.90
5358;DHT22;2702;51.014;7.170;2023-02-12T08:46:15;8.00;99.90
5358;DHT22;2702;51.014;7.170;2023-02-12T08:48:42;8.10;99.90
5358;DHT22;2702;51.014;7.170;2023-02-12T08:51:17;8.00;99.90
5358;DHT22;2702;51.014;7.170;2023-02-12T08:53:45;8.10;99.90
5358;DHT22;2702;51.014;7.170;2023-02-12T08:56:13;8.10;99.90
5358;DHT22;2702;51.014;7.170;2023-02-12T08:58:40;8.20;99.90
5358;DHT22;2702;51.014;7.170;2023-02-12T09:01:12;8.20;99.90
5358;DHT22;2702;51.014;7.170;2023-02-12T09:03:38;8.30;99.90
5358;DHT22;2702;51.014;7.170;2023-02-12T09:06:05;8.30;99.90
5358;DHT22;2702;51.014;7.170;2023-02-12T09:08:32;8.30;99.90
5358;DHT22;2702;51.014;7.170;2023-02-12T09:10:58;8.40;99.90
5358;DHT22;2702;51.014;7.170;2023-02-12T09:13:24;8.40;99.90
5358;DHT22;2702;51.014;7.170;2023-02-12T09:15:50;8.50;99.90
5358;DHT22;2702;51.014;7.170;2023-02-12T09:18:16;8.50;99.90
5358;DHT22;2702;51.014;7.170;2023-02-12T09:20:43;8.50;99.90
5358;DHT22;2702;51.014;7.170;2023-02-12T09:23:11;8.50;99.90
5358;DHT22;2702;51.014;7.170;2023-02-12T09:25:40;8.60;99.90
5358;DHT22;2702;51.014;7.170;2023-02-12T09:28:07;8.60;99.90
5358;DHT22;2702;51.014;7.170;2023-02-12T09:30:33;8.70;99.90
5358;DHT22;2702;51.014;7.170;2023-02-12T09:33:00;8.70;99.90
5358;DHT22;2702;51.014;7.170;2023-02-12T09:35:26;8.70;99.90
5358;DHT22;2702;51.014;7.170;2023-02-12T09:37:52;8.80;99.90
5358;DHT22;2702;51.014;7.170;2023-02-12T09:43:05;8.80;99.90
5358;DHT22;2702;51.014;7.170;2023-02-12T09:45:38;8.90;99.90
5358;DHT22;2702;51.014;7.170;2023-02-12T09:48:34;8.80;99.90
5358;DHT22;2702;51.014;7.170;2023-02-12T09:51:06;8.80;99.90
5358;DHT22;2702;51.014;7.170;2023-02-12T09:53:36;8.60;99.90
5358;DHT22;2702;51.014;7.170;2023-02-12T09:56:12;8.50;99.90
5358;DHT22;2702;51.014;7.170;2023-02-12T09:59:05;8.50;99.90
5358;DHT22;2702;51.014;7.170;2023-02-12T10:01:32;8.60;99.90
5358;DHT22;2702;51.014;7.170;2023-02-12T10:03:59;8.50;99.90
5358;DHT22;2702;51.014;7.170;2023-02-12T10:06:32;8.50;99.90
5358;DHT22;2702;51.014;7.170;2023-02-12T10:20:32;8.40;99.90
5358;DHT22;2702;51.014;7.170;2023-02-12T10:25:57;8.30;99.90
5358;DHT22;2702;51.014;7.170;2023-02-12T10:28:32;8.30;99.90
5358;DHT22;2702;51.014;7.170;2023-02-12T10:31:03;8.40;99.90
5358;DHT22;2702;51.014;7.170;2023-02-12T10:38:50;8.50;99.90
5358;DHT22;2702;51.014;7.170;2023-02-12T10:41:17;8.60;99.90
5358;DHT22;2702;51.014;7.170;2023-02-12T10:43:43;8.60;99.90
5358;DHT22;2702;51.014;7.170;2023-02-12T10:46:14;8.80;99.90
5358;DHT22;2702;51.014;7.170;2023-02-12T10:48:43;8.70;99.90
5358;DHT22;2702;51.014;7.170;2023-02-12T10:51:42;8.80;99.90
5358;DHT22;2702;51.014;7.170;2023-02-12T10:56:56;9.30;99.90
5358;DHT22;2702;51.014;7.170;2023-02-12T10:59:23;9.40;99.90
5358;DHT22;2702;51.014;7.170;2023-02-12T11:01:49;9.30;99.90
5358;DHT22;2702;51.014;7.170;2023-02-12T11:04:26;9.20;99.90
5358;DHT22;2702;51.014;7.170;2023-02-12T11:07:02;9.30;99.90
5358;DHT22;2702;51.014;7.170;2023-02-12T11:09:33;9.30;99.90
5358;DHT22;2702;51.014;7.170;2023-02-12T11:12:01;9.40;99.90
5358;DHT22;2702;51.014;7.170;2023-02-12T11:14:27;9.50;99.90
5358;DHT22;2702;51.014;7.170;2023-02-12T11:16:55;9.50;99.90
5358;DHT22;2702;51.014;7.170;2023-02-12T11:19:30;9.60;99.90
5358;DHT22;2702;51.014;7.170;2023-02-12T11:22:12;9.70;99.90
5358;DHT22;2702;51.014;7.170;2023-02-12T11:24:45;9.70;99.90
5358;DHT22;2702;51.014;7.170;2023-02-12T11:29:38;9.60;99.90
5358;DHT22;2702;51.014;7.170;2023-02-12T11:32:06;9.60;99.90
5358;DHT22;2702;51.014;7.170;2023-02-12T11:34:33;9.60;99.90
5358;DHT22;2702;51.014;7.170;2023-02-12T11:36:59;9.60;99.90
5358;DHT22;2702;51.014;7.170;2023-02-12T11:39:32;9.70;99.90
5358;DHT22;2702;51.014;7.170;2023-02-12T11:42:14;9.60;99.90
5358;DHT22;2702;51.014;7.170;2023-02-12T11:44:47;9.70;99.90
5358;DHT22;2702;51.014;7.170;2023-02-12T11:47:23;9.80;99.90
5358;DHT22;2702;51.014;7.170;2023-02-12T11:52:34;9.90;99.90
5358;DHT22;2702;51.014;7.170;2023-02-12T11:55:04;9.90;99.90
5358;DHT22;2702;51.014;7.170;2023-02-12T12:05:30;10.20;99.90
5358;DHT22;2702;51.014;7.170;2023-02-12T12:08:04;10.30;99.90
5358;DHT22;2702;51.014;7.170;2023-02-12T12:13:26;10.40;99.90
5358;DHT22;2702;51.014;7.170;2023-02-12T12:16:06;10.50;99.90
5358;DHT22;2702;51.014;7.170;2023-02-12T12:19:01;10.50;99.90
5358;DHT22;2702;51.014;7.170;2023-02-12T12:22:02;10.60;99.90
5358;DHT22;2702;51.014;7.170;2023-02-12T12:33:25;10.90;99.90
5358;DHT22;2702;51.014;7.170;2023-02-12T12:38:49;11.00;99.90
5358;DHT22;2702;51.014;7.170;2023-02-12T12:41:36;11.10;99.90
5358;DHT22;2702;51.014;7.170;2023-02-12T12:49:53;11.20;99.90
5358;DHT22;2702;51.014;7.170;2023-02-12T12:52:45;11.20;99.90
5358;DHT22;2702;51.014;7.170;2023-02-12T13:06:36;11.20;99.90
5358;DHT22;2702;51.014;7.170;2023-02-12T13:09:10;11.30;99.90
5358;DHT22;2702;51.014;7.170;2023-02-12T13:17:19;11.40;99.90
5358;DHT22;2702;51.014;7.170;2023-02-12T13:24:54;11.60;99.90
5358;DHT22;2702;51.014;7.170;2023-02-12T13:27:38;11.60;99.90
5358;DHT22;2702;51.014;7.170;2023-02-12T13:32:35;11.70;99.90
5358;DHT22;2702;51.014;7.170;2023-02-12T13:35:05;11.80;99.90
5358;DHT22;2702;51.014;7.170;2023-02-12T13:37:39;11.90;99.90
5358;DHT22;2702;51.014;7.170;2023-02-12T13:40:16;11.90;99.90
5358;DHT22;2702;51.014;7.170;2023-02-12T13:48:18;11.60;99.90
5358;DHT22;2702;51.014;7.170;2023-02-12T13:53:46;11.50;99.90
5358;DHT22;2702;51.014;7.170;2023-02-12T13:59:03;11.40;99.90
5358;DHT22;2702;51.014;7.170;2023-02-12T14:01:46;11.50;99.90
5358;DHT22;2702;51.014;7.170;2023-02-12T14:04:31;11.60;99.90
5358;DHT22;2702;51.014;7.170;2023-02-12T14:09:38;11.40;99.90
5358;DHT22;2702;51.014;7.170;2023-02-12T14:12:32;11.50;99.90
5358;DHT22;2702;51.014;7.170;2023-02-12T14:38:01;11.60;99.90
5358;DHT22;2702;51.014;7.170;2023-02-12T14:43:17;11.70;99.90
5358;DHT22;2702;51.014;7.170;2023-02-12T14:45:48;11.80;99.90
5358;DHT22;2702;51.014;7.170;2023-02-12T14:48:42;11.70;99.90
5358;DHT22;2702;51.014;7.170;2023-02-12T14:51:21;11.60;99.90
5358;DHT22;2702;51.014;7.170;2023-02-12T14:53:48;11.60;99.90
5358;DHT22;2702;51.014;7.170;2023-02-12T14:56:21;11.60;99.90
5358;DHT22;2702;51.014;7.170;2023-02-12T14:58:49;11.70;99.90
5358;DHT22;2702;51.014;7.170;2023-02-12T15:01:15;11.70;99.90
5358;DHT22;2702;51.014;7.170;2023-02-12T15:03:51;11.70;99.90
5358;DHT22;2702;51.014;7.170;2023-02-12T15:06:21;11.80;99.90
5358;DHT22;2702;51.014;7.170;2023-02-12T15:09:01;11.80;99.90
5358;DHT22;2702;51.014;7.170;2023-02-12T15:11:51;11.90;99.90
5358;DHT22;2702;51.014;7.170;2023-02-12T15:14:27;11.80;99.90
5358;DHT22;2702;51.014;7.170;2023-02-12T15:17:10;11.80;99.90
5358;DHT22;2702;51.014;7.170;2023-02-12T15:19:59;11.80;99.90
5358;DHT22;2702;51.014;7.170;2023-02-12T15:22:34;11.80;99.90
5358;DHT22;2702;51.014;7.170;2023-02-12T15:25:26;11.80;99.90
5358;DHT22;2702;51.014;7.170;2023-02-12T15:27:58;11.80;99.90
5358;DHT22;2702;51.014;7.170;2023-02-12T15:30:34;11.80;99.90
5358;DHT22;2702;51.014;7.170;2023-02-12T15:33:05;11.80;99.90
5358;DHT22;2702;51.014;7.170;2023-02-12T15:35:36;11.80;99.90
5358;DHT22;2702;51.014;7.170;2023-02-12T15:38:03;11.80;99.90
5358;DHT22;2702;51.014;7.170;2023-02-12T15:40:32;11.80;99.90
5358;DHT22;2702;51.014;7.170;2023-02-12T15:43:03;11.90;99.90
5358;DHT22;2702;51.014;7.170;2023-02-12T15:45:31;11.90;99.90
5358;DHT22;2702;51.014;7.170;2023-02-12T15:48:18;11.80;99.90
5358;DHT22;2702;51.014;7.170;2023-02-12T15:53:39;11.60;99.90
5358;DHT22;2702;51.014;7.170;2023-02-12T15:56:13;11.50;99.90
5358;DHT22;2702;51.014;7.170;2023-02-12T15:59:00;11.50;99.90
5358;DHT22;2702;51.014;7.170;2023-02-12T16:01:30;11.40;99.90
5358;DHT22;2702;51.014;7.170;2023-02-12T16:04:05;11.30;99.90
5358;DHT22;2702;51.014;7.170;2023-02-12T16:06:33;11.30;99.90
5358;DHT22;2702;51.014;7.170;2023-02-12T16:09:07;11.30;99.90
5358;DHT22;2702;51.014;7.170;2023-02-12T16:11:34;11.30;99.90
5358;DHT22;2702;51.014;7.170;2023-02-12T16:14:07;11.30;99.90
5358;DHT22;2702;51.014;7.170;2023-02-12T16:16:47;11.30;99.90
5358;DHT22;2702;51.014;7.170;2023-02-12T16:19:27;11.40;99.90
5358;DHT22;2702;51.014;7.170;2023-02-12T16:22:14;11.40;99.90
5358;DHT22;2702;51.014;7.170;2023-02-12T16:24:46;11.30;99.90
5358;DHT22;2702;51.014;7.170;2023-02-12T16:29:53;11.30;99.90
5358;DHT22;2702;51.014;7.170;2023-02-12T16:32:39;11.30;99.90
5358;DHT22;2702;51.014;7.170;2023-02-12T16:40:19;11.20;99.90
5358;DHT22;2702;51.014;7.170;2023-02-12T16:47:57;11.10;99.90
5358;DHT22;2702;51.014;7.170;2023-02-12T16:50:27;11.10;99.90
5358;DHT22;2702;51.014;7.170;2023-02-12T16:53:00;11.00;99.90
5358;DHT22;2702;51.014;7.170;2023-02-12T16:55:26;11.00;99.90
5358;DHT22;2702;51.014;7.170;2023-02-12T16:57:52;11.00;99.90
5358;DHT22;2702;51.014;7.170;2023-02-12T17:00:18;11.00;99.90
5358;DHT22;2702;51.014;7.170;2023-02-12T17:02:45;10.90;99.90
5358;DHT22;2702;51.014;7.170;2023-02-12T17:05:13;10.90;99.90
5358;DHT22;2702;51.014;7.170;2023-02-12T17:07:42;10.90;99.90
5358;DHT22;2702;51.014;7.170;2023-02-12T17:10:12;10.90;99.90
5358;DHT22;2702;51.014;7.170;2023-02-12T17:12:49;10.90;99.90
5358;DHT22;2702;51.014;7.170;2023-02-12T17:15:26;10.90;99.90
5358;DHT22;2702;51.014;7.170;2023-02-12T17:17:53;10.90;99.90
5358;DHT22;2702;51.014;7.170;2023-02-12T17:20:19;10.80;99.90
5358;DHT22;2702;51.014;7.170;2023-02-12T17:22:51;10.90;99.90
5358;DHT22;2702;51.014;7.170;2023-02-12T17:25:17;10.90;99.90
5358;DHT22;2702;51.014;7.170;2023-02-12T17:27:44;10.80;99.90
5358;DHT22;2702;51.014;7.170;2023-02-12T17:30:17;10.70;99.90
5358;DHT22;2702;51.014;7.170;2023-02-12T17:32:45;10.70;99.90
5358;DHT22;2702;51.014;7.170;2023-02-12T17:35:11;10.70;99.90
5358;DHT22;2702;51.014;7.170;2023-02-12T17:37:37;10.70;99.90
5358;DHT22;2702;51.014;7.170;2023-02-12T17:40:03;10.70;99.90
5358;DHT22;2702;51.014;7.170;2023-02-12T17:42:32;10.70;99.90
5358;DHT22;2702;51.014;7.170;2023-02-12T17:44:58;10.60;99.90
5358;DHT22;2702;51.014;7.170;2023-02-12T17:47:24;10.50;99.90
5358;DHT22;2702;51.014;7.170;2023-02-12T17:49:49;10.50;99.90
5358;DHT22;2702;51.014;7.170;2023-02-12T17:52:15;10.50;99.90
5358;DHT22;2702;51.014;7.170;2023-02-12T17:54:45;10.50;99.90
5358;DHT22;2702;51.014;7.170;2023-02-12T17:57:11;10.50;99.90
5358;DHT22;2702;51.014;7.170;2023-02-12T17:59:37;10.40;99.90
5358;DHT22;2702;51.014;7.170;2023-02-12T18:02:04;10.30;99.90
5358;DHT22;2702;51.014;7.170;2023-02-12T18:04:30;10.40;99.90
5358;DHT22;2702;51.014;7.170;2023-02-12T18:07:01;10.30;99.90
5358;DHT22;2702;51.014;7.170;2023-02-12T18:09:26;10.10;99.90
5358;DHT22;2702;51.014;7.170;2023-02-12T18:11:52;10.10;99.90
5358;DHT22;2702;51.014;7.170;2023-02-12T18:14:18;10.00;99.90
5358;DHT22;2702;51.014;7.170;2023-02-12T18:16:44;10.00;99.90
5358;DHT22;2702;51.014;7.170;2023-02-12T18:19:10;10.00;99.90
5358;DHT22;2702;51.014;7.170;2023-02-12T18:21:36;10.00;99.90
5358;DHT22;2702;51.014;7.170;2023-02-12T18:24:03;10.00;99.90
5358;DHT22;2702;51.014;7.170;2023-02-12T18:26:30;10.00;99.90
5358;DHT22;2702;51.014;7.170;2023-02-12T18:28:57;10.00;99.90
5358;DHT22;2702;51.014;7.170;2023-02-12T18:31:24;9.90;99.90
5358;DHT22;2702;51.014;7.170;2023-02-12T18:33:50;9.90;99.90
5358;DHT22;2702;51.014;7.170;2023-02-12T18:36:18;9.80;99.90
5358;DHT22;2702;51.014;7.170;2023-02-12T18:38:46;9.80;99.90
5358;DHT22;2702;51.014;7.170;2023-02-12T18:41:15;9.80;99.90
5358;DHT22;2702;51.014;7.170;2023-02-12T18:43:41;9.70;99.90
5358;DHT22;2702;51.014;7.170;2023-02-12T18:46:29;9.70;99.90
5358;DHT22;2702;51.014;7.170;2023-02-12T18:48:56;9.60;99.90
5358;DHT22;2702;51.014;7.170;2023-02-12T18:51:26;9.70;99.90
5358;DHT22;2702;51.014;7.170;2023-02-12T18:53:54;9.60;99.90
5358;DHT22;2702;51.014;7.170;2023-02-12T18:56:20;9.70;99.90
5358;DHT22;2702;51.014;7.170;2023-02-12T18:58:47;9.70;99.90
5358;DHT22;2702;51.014;7.170;2023-02-12T19:01:17;9.60;99.90
5358;DHT22;2702;51.014;7.170;2023-02-12T19:03:44;9.60;99.90
5358;DHT22;2702;51.014;7.170;2023-02-12T19:06:11;9.60;99.90
5358;DHT22;2702;51.014;7.170;2023-02-12T19:08:38;9.60;99.90
5358;DHT22;2702;51.014;7.170;2023-02-12T19:11:08;9.50;99.90
5358;DHT22;2702;51.014;7.170;2023-02-12T19:13:37;9.50;99.90
5358;DHT22;2702;51.014;7.170;2023-02-12T19:16:08;9.60;99.90
5358;DHT22;2702;51.014;7.170;2023-02-12T19:18:34;9.60;99.90
5358;DHT22;2702;51.014;7.170;2023-02-12T19:21:06;9.50;99.90
5358;DHT22;2702;51.014;7.170;2023-02-12T19:23:32;9.60;99.90
5358;DHT22;2702;51.014;7.170;2023-02-12T19:26:03;9.60;99.90
5358;DHT22;2702;51.014;7.170;2023-02-12T19:28:30;9.50;99.90
5358;DHT22;2702;51.014;7.170;2023-02-12T19:30:56;9.50;99.90
5358;DHT22;2702;51.014;7.170;2023-02-12T19:33:22;9.50;99.90
5358;DHT22;2702;51.014;7.170;2023-02-12T19:35:49;9.40;99.90
5358;DHT22;2702;51.014;7.170;2023-02-12T19:38:15;9.40;99.90
5358;DHT22;2702;51.014;7.170;2023-02-12T19:40:43;9.30;99.90
5358;DHT22;2702;51.014;7.170;2023-02-12T19:43:09;9.40;99.90
5358;DHT22;2702;51.014;7.170;2023-02-12T19:45:35;9.40;99.90